sensor_id;sensor_type;location;lat;lon;timestamp;temperature;humidity
63317;DHT22;49822;41.468;13.560;2023-08-20T00:02:23;24.90;88.20
63317;DHT22;49822;41.468;13.560;2023-08-20T00:04:49;25.00;87.50
63317;DHT22;49822;41.468;13.560;2023-08-20T00:07:16;25.10;87.50
63317;DHT22;49822;41.468;13.560;2023-08-20T00:09:44;25.10;87.40
63317;DHT22;49822;41.468;13.560;2023-08-20T00:12:11;25.00;87.70
63317;DHT22;49822;41.468;13.560;2023-08-20T00:14:57;25.00;87.30
63317;DHT22;49822;41.468;13.560;2023-08-20T00:17:25;25.10;87.20
63317;DHT22;49822;41.468;13.560;2023-08-20T00:19:56;25.00;87.70
63317;DHT22;49822;41.468;13.560;2023-08-20T00:22:23;24.90;88.10
63317;DHT22;49822;41.468;13.560;2023-08-20T00:24:51;25.00;87.60
63317;DHT22;49822;41.468;13.560;2023-08-20T00:27:17;24.90;87.90
63317;DHT22;49822;41.468;13.560;2023-08-20T00:29:44;24.80;88.70
63317;DHT22;49822;41.468;13.560;2023-08-20T00:32:10;24.60;88.80
63317;DHT22;49822;41.468;13.560;2023-08-20T00:34:37;24.50;88.80
63317;DHT22;49822;41.468;13.560;2023-08-20T00:37:03;24.50;88.70
63317;DHT22;49822;41.468;13.560;2023-08-20T00:39:29;24.60;88.30
63317;DHT22;49822;41.468;13.560;2023-08-20T00:41:56;24.70;88.20
63317;DHT22;49822;41.468;13.560;2023-08-20T00:44:24;24.70;88.00
63317;DHT22;49822;41.468;13.560;2023-08-20T00:46:51;24.60;89.10
63317;DHT22;49822;41.468;13.560;2023-08-20T00:49:18;24.60;89.30
63317;DHT22;49822;41.468;13.560;2023-08-20T00:51:46;24.60;89.10
63317;DHT22;49822;41.468;13.560;2023-08-20T00:54:12;24.50;88.60
63317;DHT22;49822;41.468;13.560;2023-08-20T00:56:39;24.30;89.00
63317;DHT22;49822;41.468;13.560;2023-08-20T00:59:05;24.20;89.90
63317;DHT22;49822;41.468;13.560;2023-08-20T01:01:32;24.10;89.90
63317;DHT22;49822;41.468;13.560;2023-08-20T01:03:59;24.20;89.80
63317;DHT22;49822;41.468;13.560;2023-08-20T01:09:06;24.40;88.60
63317;DHT22;49822;41.468;13.560;2023-08-20T01:11:44;24.40;88.60
63317;DHT22;49822;41.468;13.560;2023-08-20T01:14:17;24.40;88.20
63317;DHT22;49822;41.468;13.560;2023-08-20T01:16:45;24.40;88.50
63317;DHT22;49822;41.468;13.560;2023-08-20T01:19:18;24.50;88.60
63317;DHT22;49822;41.468;13.560;2023-08-20T01:24:58;24.40;88.20
63317;DHT22;49822;41.468;13.560;2023-08-20T01:27:42;24.10;89.80
63317;DHT22;49822;41.468;13.560;2023-08-20T01:30:11;23.80;91.30
63317;DHT22;49822;41.468;13.560;2023-08-20T01:32:39;23.70;91.60
63317;DHT22;49822;41.468;13.560;2023-08-20T01:35:12;23.60;91.90
63317;DHT22;49822;41.468;13.560;2023-08-20T01:37:41;23.70;91.80
63317;DHT22;49822;41.468;13.560;2023-08-20T01:40:09;23.70;91.80
63317;DHT22;49822;41.468;13.560;2023-08-20T01:42:38;23.80;91.40
63317;DHT22;49822;41.468;13.560;2023-08-20T01:45:06;23.90;90.90
63317;DHT22;49822;41.468;13.560;2023-08-20T01:47:33;24.00;90.20
63317;DHT22;49822;41.468;13.560;2023-08-20T01:50:00;24.10;89.60
63317;DHT22;49822;41.468;13.560;2023-08-20T01:52:26;24.10;89.00
63317;DHT22;49822;41.468;13.560;2023-08-20T01:54:52;24.20;88.90
63317;DHT22;49822;41.468;13.560;2023-08-20T01:57:22;24.00;89.50
63317;DHT22;49822;41.468;13.560;2023-08-20T01:59:49;24.00;90.00
63317;DHT22;49822;41.468;13.560;2023-08-20T02:02:15;24.00;91.00
63317;DHT22;49822;41.468;13.560;2023-08-20T02:04:42;23.90;90.70
63317;DHT22;49822;41.468;13.560;2023-08-20T02:07:08;24.00;90.50
63317;DHT22;49822;41.468;13.560;2023-08-20T02:09:34;24.00;90.20
63317;DHT22;49822;41.468;13.560;2023-08-20T02:12:00;24.00;90.10
63317;DHT22;49822;41.468;13.560;2023-08-20T02:14:26;24.10;90.00
63317;DHT22;49822;41.468;13.560;2023-08-20T02:16:54;24.10;89.90
63317;DHT22;49822;41.468;13.560;2023-08-20T02:19:20;24.10;89.80
63317;DHT22;49822;41.468;13.560;2023-08-20T02:21:46;24.20;89.90
63317;DHT22;49822;41.468;13.560;2023-08-20T02:24:13;24.00;90.50
63317;DHT22;49822;41.468;13.560;2023-08-20T02:26:40;23.70;91.50
63317;DHT22;49822;41.468;13.560;2023-08-20T02:29:06;23.60;92.30
63317;DHT22;49822;41.468;13.560;2023-08-20T02:31:32;23.50;92.80
63317;DHT22;49822;41.468;13.560;2023-08-20T02:33:59;23.60;92.70
63317;DHT22;49822;41.468;13.560;2023-08-20T02:36:25;23.60;91.90
63317;DHT22;49822;41.468;13.560;2023-08-20T02:38:51;23.70;91.00
63317;DHT22;49822;41.468;13.560;2023-08-20T02:41:18;23.80;90.70
63317;DHT22;49822;41.468;13.560;2023-08-20T02:43:45;23.80;90.50
63317;DHT22;49822;41.468;13.560;2023-08-20T02:46:11;23.90;90.40
63317;DHT22;49822;41.468;13.560;2023-08-20T02:48:38;23.90;90.20
63317;DHT22;49822;41.468;13.560;2023-08-20T02:51:04;23.90;90.10
63317;DHT22;49822;41.468;13.560;2023-08-20T02:53:30;24.00;89.60
63317;DHT22;49822;41.468;13.560;2023-08-20T02:55:56;24.00;89.60
63317;DHT22;49822;41.468;13.560;2023-08-20T02:58:22;23.90;89.80
63317;DHT22;49822;41.468;13.560;2023-08-20T03:00:50;23.80;90.30
63317;DHT22;49822;41.468;13.560;2023-08-20T03:03:17;23.70;90.60
63317;DHT22;49822;41.468;13.560;2023-08-20T03:05:44;23.40;91.80
63317;DHT22;49822;41.468;13.560;2023-08-20T03:08:10;23.40;92.70
63317;DHT22;49822;41.468;13.560;2023-08-20T03:10:36;23.30;93.30
63317;DHT22;49822;41.468;13.560;2023-08-20T03:13:03;23.30;92.00
63317;DHT22;49822;41.468;13.560;2023-08-20T03:15:30;23.40;92.00
63317;DHT22;49822;41.468;13.560;2023-08-20T03:17:57;23.50;91.80
63317;DHT22;49822;41.468;13.560;2023-08-20T03:20:24;23.50;91.60
63317;DHT22;49822;41.468;13.560;2023-08-20T03:22:50;23.40;91.80
63317;DHT22;49822;41.468;13.560;2023-08-20T03:25:16;23.50;91.90
63317;DHT22;49822;41.468;13.560;2023-08-20T03:27:42;23.40;91.70
63317;DHT22;49822;41.468;13.560;2023-08-20T03:30:09;23.60;91.30
63317;DHT22;49822;41.468;13.560;2023-08-20T03:32:35;23.60;91.10
63317;DHT22;49822;41.468;13.560;2023-08-20T03:35:02;23.60;90.30
63317;DHT22;49822;41.468;13.560;2023-08-20T03:37:29;23.50;90.90
63317;DHT22;49822;41.468;13.560;2023-08-20T03:39:55;23.50;91.40
63317;DHT22;49822;41.468;13.560;2023-08-20T03:42:21;23.50;91.20
63317;DHT22;49822;41.468;13.560;2023-08-20T03:44:47;23.60;91.50
63317;DHT22;49822;41.468;13.560;2023-08-20T03:47:15;23.50;91.10
63317;DHT22;49822;41.468;13.560;2023-08-20T03:49:41;23.50;90.70
63317;DHT22;49822;41.468;13.560;2023-08-20T03:52:07;23.50;90.40
63317;DHT22;49822;41.468;13.560;2023-08-20T03:54:34;23.50;90.50
63317;DHT22;49822;41.468;13.560;2023-08-20T03:57:00;23.40;90.40
63317;DHT22;49822;41.468;13.560;2023-08-20T03:59:27;23.40;90.30
63317;DHT22;49822;41.468;13.560;2023-08-20T04:01:53;23.40;90.00
63317;DHT22;49822;41.468;13.560;2023-08-20T04:04:19;23.40;89.90
63317;DHT22;49822;41.468;13.560;2023-08-20T04:06:46;23.20;89.70
63317;DHT22;49822;41.468;13.560;2023-08-20T04:09:13;23.00;91.00
63317;DHT22;49822;41.468;13.560;2023-08-20T04:11:40;23.10;90.80
63317;DHT22;49822;41.468;13.560;2023-08-20T04:14:06;23.10;90.20
63317;DHT22;49822;41.468;13.560;2023-08-20T04:16:32;23.10;89.70
63317;DHT22;49822;41.468;13.560;2023-08-20T04:18:58;23.00;90.10
63317;DHT22;49822;41.468;13.560;2023-08-20T04:21:24;22.90;90.60
63317;DHT22;49822;41.468;13.560;2023-08-20T04:23:50;22.60;91.60
63317;DHT22;49822;41.468;13.560;2023-08-20T04:26:17;22.40;92.70
63317;DHT22;49822;41.468;13.560;2023-08-20T04:28:44;22.50;93.00
63317;DHT22;49822;41.468;13.560;2023-08-20T04:31:10;22.50;93.80
63317;DHT22;49822;41.468;13.560;2023-08-20T04:33:47;22.60;93.20
63317;DHT22;49822;41.468;13.560;2023-08-20T04:36:17;22.50;91.80
63317;DHT22;49822;41.468;13.560;2023-08-20T04:38:43;22.60;92.40
63317;DHT22;49822;41.468;13.560;2023-08-20T04:41:10;22.70;92.30
63317;DHT22;49822;41.468;13.560;2023-08-20T04:43:55;22.80;91.60
63317;DHT22;49822;41.468;13.560;2023-08-20T04:46:33;23.00;91.10
63317;DHT22;49822;41.468;13.560;2023-08-20T04:48:59;23.10;90.80
63317;DHT22;49822;41.468;13.560;2023-08-20T04:51:25;23.20;90.50
63317;DHT22;49822;41.468;13.560;2023-08-20T04:53:52;23.30;90.10
63317;DHT22;49822;41.468;13.560;2023-08-20T04:56:19;23.40;90.10
63317;DHT22;49822;41.468;13.560;2023-08-20T04:58:45;23.40;90.30
63317;DHT22;49822;41.468;13.560;2023-08-20T05:01:13;23.50;89.60
63317;DHT22;49822;41.468;13.560;2023-08-20T05:03:39;23.60;89.00
63317;DHT22;49822;41.468;13.560;2023-08-20T05:06:05;23.40;90.00
63317;DHT22;49822;41.468;13.560;2023-08-20T05:08:32;23.40;90.40
63317;DHT22;49822;41.468;13.560;2023-08-20T05:11:00;23.50;89.30
63317;DHT22;49822;41.468;13.560;2023-08-20T05:13:26;23.30;90.30
63317;DHT22;49822;41.468;13.560;2023-08-20T05:15:54;23.30;90.60
63317;DHT22;49822;41.468;13.560;2023-08-20T05:18:21;23.30;90.60
63317;DHT22;49822;41.468;13.560;2023-08-20T05:20:47;23.40;90.70
63317;DHT22;49822;41.468;13.560;2023-08-20T05:23:13;23.50;90.40
63317;DHT22;49822;41.468;13.560;2023-08-20T05:25:41;23.70;89.50
63317;DHT22;49822;41.468;13.560;2023-08-20T05:28:07;23.80;89.10
63317;DHT22;49822;41.468;13.560;2023-08-20T05:30:34;24.00;88.60
63317;DHT22;49822;41.468;13.560;2023-08-20T05:33:01;24.10;88.50
63317;DHT22;49822;41.468;13.560;2023-08-20T05:35:33;24.10;88.40
63317;DHT22;49822;41.468;13.560;2023-08-20T05:38:01;24.20;88.10
63317;DHT22;49822;41.468;13.560;2023-08-20T05:40:27;24.40;88.10
63317;DHT22;49822;41.468;13.560;2023-08-20T05:42:54;24.50;88.00
63317;DHT22;49822;41.468;13.560;2023-08-20T05:45:21;24.80;87.50
63317;DHT22;49822;41.468;13.560;2023-08-20T05:47:50;24.80;87.20
63317;DHT22;49822;41.468;13.560;2023-08-20T05:50:16;24.90;86.80
63317;DHT22;49822;41.468;13.560;2023-08-20T05:52:44;25.00;86.70
63317;DHT22;49822;41.468;13.560;2023-08-20T05:55:10;25.10;86.80
63317;DHT22;49822;41.468;13.560;2023-08-20T05:57:38;25.20;86.60
63317;DHT22;49822;41.468;13.560;2023-08-20T06:00:08;25.30;86.10
63317;DHT22;49822;41.468;13.560;2023-08-20T06:02:41;25.60;85.80
63317;DHT22;49822;41.468;13.560;2023-08-20T06:05:10;25.60;85.90
63317;DHT22;49822;41.468;13.560;2023-08-20T06:07:37;25.80;85.70
63317;DHT22;49822;41.468;13.560;2023-08-20T06:10:06;25.90;85.50
63317;DHT22;49822;41.468;13.560;2023-08-20T06:12:35;25.90;85.70
63317;DHT22;49822;41.468;13.560;2023-08-20T06:15:01;25.80;85.50
63317;DHT22;49822;41.468;13.560;2023-08-20T06:17:29;25.90;85.10
63317;DHT22;49822;41.468;13.560;2023-08-20T06:19:56;26.00;85.30
63317;DHT22;49822;41.468;13.560;2023-08-20T06:22:23;26.00;85.20
63317;DHT22;49822;41.468;13.560;2023-08-20T06:24:50;26.10;85.20
63317;DHT22;49822;41.468;13.560;2023-08-20T06:27:18;26.20;85.50
63317;DHT22;49822;41.468;13.560;2023-08-20T06:29:44;26.20;85.20
63317;DHT22;49822;41.468;13.560;2023-08-20T06:32:11;26.20;85.00
63317;DHT22;49822;41.468;13.560;2023-08-20T06:34:39;26.20;84.90
63317;DHT22;49822;41.468;13.560;2023-08-20T06:37:05;26.20;84.90
63317;DHT22;49822;41.468;13.560;2023-08-20T06:39:32;26.20;84.70
63317;DHT22;49822;41.468;13.560;2023-08-20T06:42:00;26.20;84.70
63317;DHT22;49822;41.468;13.560;2023-08-20T06:44:31;26.30;84.70
63317;DHT22;49822;41.468;13.560;2023-08-20T06:46:57;26.40;84.00
63317;DHT22;49822;41.468;13.560;2023-08-20T06:49:23;26.30;84.70
63317;DHT22;49822;41.468;13.560;2023-08-20T06:55:49;26.70;83.70
63317;DHT22;49822;41.468;13.560;2023-08-20T06:58:18;26.80;83.20
63317;DHT22;49822;41.468;13.560;2023-08-20T07:00:47;26.90;83.10
63317;DHT22;49822;41.468;13.560;2023-08-20T07:03:13;27.20;82.80
63317;DHT22;49822;41.468;13.560;2023-08-20T07:05:40;27.30;82.40
63317;DHT22;49822;41.468;13.560;2023-08-20T07:08:06;27.40;81.70
63317;DHT22;49822;41.468;13.560;2023-08-20T07:10:33;27.50;81.00
63317;DHT22;49822;41.468;13.560;2023-08-20T07:12:59;27.60;81.30
63317;DHT22;49822;41.468;13.560;2023-08-20T07:15:26;27.70;80.20
63317;DHT22;49822;41.468;13.560;2023-08-20T07:17:53;27.70;80.70
63317;DHT22;49822;41.468;13.560;2023-08-20T07:20:19;27.80;80.30
63317;DHT22;49822;41.468;13.560;2023-08-20T07:26:33;28.20;79.10
63317;DHT22;49822;41.468;13.560;2023-08-20T07:28:59;28.30;78.60
63317;DHT22;49822;41.468;13.560;2023-08-20T07:31:27;28.30;77.90
63317;DHT22;49822;41.468;13.560;2023-08-20T07:33:54;28.60;78.20
63317;DHT22;49822;41.468;13.560;2023-08-20T07:36:23;28.60;77.80
63317;DHT22;49822;41.468;13.560;2023-08-20T07:38:50;28.70;77.60
63317;DHT22;49822;41.468;13.560;2023-08-20T07:41:17;28.80;77.50
63317;DHT22;49822;41.468;13.560;2023-08-20T07:43:45;28.90;75.10
63317;DHT22;49822;41.468;13.560;2023-08-20T07:46:12;28.90;76.20
63317;DHT22;49822;41.468;13.560;2023-08-20T07:48:39;28.80;76.00
63317;DHT22;49822;41.468;13.560;2023-08-20T07:51:05;29.00;76.40
63317;DHT22;49822;41.468;13.560;2023-08-20T07:53:33;29.10;75.00
63317;DHT22;49822;41.468;13.560;2023-08-20T07:56:00;29.20;74.60
63317;DHT22;49822;41.468;13.560;2023-08-20T07:58:26;29.30;74.20
63317;DHT22;49822;41.468;13.560;2023-08-20T08:00:53;29.40;74.00
63317;DHT22;49822;41.468;13.560;2023-08-20T08:03:20;29.50;72.50
63317;DHT22;49822;41.468;13.560;2023-08-20T08:05:50;29.60;73.00
63317;DHT22;49822;41.468;13.560;2023-08-20T08:08:17;29.70;73.00
63317;DHT22;49822;41.468;13.560;2023-08-20T08:10:44;29.80;73.40
63317;DHT22;49822;41.468;13.560;2023-08-20T08:13:15;30.00;73.20
63317;DHT22;49822;41.468;13.560;2023-08-20T08:15:45;30.20;71.80
63317;DHT22;49822;41.468;13.560;2023-08-20T08:18:13;30.20;72.30
63317;DHT22;49822;41.468;13.560;2023-08-20T08:20:40;30.30;71.20
63317;DHT22;49822;41.468;13.560;2023-08-20T08:23:06;30.40;71.50
63317;DHT22;49822;41.468;13.560;2023-08-20T08:25:33;30.40;71.70
63317;DHT22;49822;41.468;13.560;2023-08-20T08:27:59;30.50;71.90
63317;DHT22;49822;41.468;13.560;2023-08-20T08:30:25;30.60;71.20
63317;DHT22;49822;41.468;13.560;2023-08-20T08:32:51;30.80;72.10
63317;DHT22;49822;41.468;13.560;2023-08-20T08:35:19;30.90;71.00
63317;DHT22;49822;41.468;13.560;2023-08-20T08:37:45;30.90;70.60
63317;DHT22;49822;41.468;13.560;2023-08-20T08:40:12;31.20;70.20
63317;DHT22;49822;41.468;13.560;2023-08-20T08:42:38;31.20;69.10
63317;DHT22;49822;41.468;13.560;2023-08-20T08:45:09;31.10;68.40
63317;DHT22;49822;41.468;13.560;2023-08-20T08:47:40;31.00;66.00
63317;DHT22;49822;41.468;13.560;2023-08-20T08:50:07;31.00;64.90
63317;DHT22;49822;41.468;13.560;2023-08-20T08:52:37;31.10;66.60
63317;DHT22;49822;41.468;13.560;2023-08-20T08:55:05;31.10;65.60
63317;DHT22;49822;41.468;13.560;2023-08-20T08:57:41;31.00;65.80
63317;DHT22;49822;41.468;13.560;2023-08-20T09:00:08;31.10;65.30
63317;DHT22;49822;41.468;13.560;2023-08-20T09:02:35;31.30;66.50
63317;DHT22;49822;41.468;13.560;2023-08-20T09:05:02;31.40;65.40
63317;DHT22;49822;41.468;13.560;2023-08-20T09:07:28;31.60;67.20
63317;DHT22;49822;41.468;13.560;2023-08-20T09:09:58;31.70;66.60
63317;DHT22;49822;41.468;13.560;2023-08-20T09:12:27;31.90;64.60
63317;DHT22;49822;41.468;13.560;2023-08-20T09:14:55;32.00;64.20
63317;DHT22;49822;41.468;13.560;2023-08-20T09:17:25;32.00;64.70
63317;DHT22;49822;41.468;13.560;2023-08-20T09:19:54;32.20;64.30
63317;DHT22;49822;41.468;13.560;2023-08-20T09:22:26;32.20;65.00
63317;DHT22;49822;41.468;13.560;2023-08-20T09:24:54;32.40;64.10
63317;DHT22;49822;41.468;13.560;2023-08-20T09:27:21;32.50;63.20
63317;DHT22;49822;41.468;13.560;2023-08-20T09:29:50;32.50;63.60
63317;DHT22;49822;41.468;13.560;2023-08-20T09:32:27;32.60;63.30
63317;DHT22;49822;41.468;13.560;2023-08-20T09:34:55;32.70;63.30
63317;DHT22;49822;41.468;13.560;2023-08-20T09:37:23;32.90;62.90
63317;DHT22;49822;41.468;13.560;2023-08-20T09:39:49;32.90;63.20
63317;DHT22;49822;41.468;13.560;2023-08-20T09:42:16;33.10;62.80
63317;DHT22;49822;41.468;13.560;2023-08-20T09:44:44;33.30;62.10
63317;DHT22;49822;41.468;13.560;2023-08-20T09:47:12;33.20;61.50
63317;DHT22;49822;41.468;13.560;2023-08-20T09:49:43;33.10;59.70
63317;DHT22;49822;41.468;13.560;2023-08-20T09:52:39;33.10;60.50
63317;DHT22;49822;41.468;13.560;2023-08-20T09:55:16;33.20;61.00
63317;DHT22;49822;41.468;13.560;2023-08-20T09:57:42;33.30;60.80
63317;DHT22;49822;41.468;13.560;2023-08-20T10:00:10;33.60;62.20
63317;DHT22;49822;41.468;13.560;2023-08-20T10:02:41;33.80;60.30
63317;DHT22;49822;41.468;13.560;2023-08-20T10:05:09;34.00;61.00
63317;DHT22;49822;41.468;13.560;2023-08-20T10:07:36;34.10;61.20
63317;DHT22;49822;41.468;13.560;2023-08-20T10:10:07;34.20;60.20
63317;DHT22;49822;41.468;13.560;2023-08-20T10:12:34;34.30;59.10
63317;DHT22;49822;41.468;13.560;2023-08-20T10:15:02;34.40;60.20
63317;DHT22;49822;41.468;13.560;2023-08-20T10:17:33;34.50;60.20
63317;DHT22;49822;41.468;13.560;2023-08-20T10:19:59;34.70;57.80
63317;DHT22;49822;41.468;13.560;2023-08-20T10:22:36;34.80;59.10
63317;DHT22;49822;41.468;13.560;2023-08-20T10:25:22;34.90;57.70
63317;DHT22;49822;41.468;13.560;2023-08-20T10:27:48;35.00;59.00
63317;DHT22;49822;41.468;13.560;2023-08-20T10:30:19;35.20;56.60
63317;DHT22;49822;41.468;13.560;2023-08-20T10:32:52;35.30;57.40
63317;DHT22;49822;41.468;13.560;2023-08-20T10:38:04;35.30;57.10
63317;DHT22;49822;41.468;13.560;2023-08-20T10:41:10;35.50;56.60
63317;DHT22;49822;41.468;13.560;2023-08-20T10:43:40;35.50;56.30
63317;DHT22;49822;41.468;13.560;2023-08-20T10:46:19;35.60;55.80
63317;DHT22;49822;41.468;13.560;2023-08-20T10:48:55;35.60;57.20
63317;DHT22;49822;41.468;13.560;2023-08-20T10:51:38;35.70;55.50
63317;DHT22;49822;41.468;13.560;2023-08-20T10:54:10;35.80;56.20
63317;DHT22;49822;41.468;13.560;2023-08-20T10:56:45;36.00;56.90
63317;DHT22;49822;41.468;13.560;2023-08-20T10:59:21;36.10;54.50
63317;DHT22;49822;41.468;13.560;2023-08-20T11:01:51;36.20;56.00
63317;DHT22;49822;41.468;13.560;2023-08-20T11:04:20;36.40;55.30
63317;DHT22;49822;41.468;13.560;2023-08-20T11:06:50;36.50;55.30
63317;DHT22;49822;41.468;13.560;2023-08-20T11:09:18;36.70;54.00
63317;DHT22;49822;41.468;13.560;2023-08-20T11:11:44;36.80;53.40
63317;DHT22;49822;41.468;13.560;2023-08-20T11:14:14;36.70;52.30
63317;DHT22;49822;41.468;13.560;2023-08-20T11:16:42;36.60;54.50
63317;DHT22;49822;41.468;13.560;2023-08-20T11:19:09;36.70;54.00
63317;DHT22;49822;41.468;13.560;2023-08-20T11:21:40;36.90;54.60
63317;DHT22;49822;41.468;13.560;2023-08-20T11:24:07;37.00;52.10
63317;DHT22;49822;41.468;13.560;2023-08-20T11:26:34;36.90;53.50
63317;DHT22;49822;41.468;13.560;2023-08-20T11:29:06;37.00;53.90
63317;DHT22;49822;41.468;13.560;2023-08-20T11:31:32;36.90;52.70
63317;DHT22;49822;41.468;13.560;2023-08-20T11:33:58;36.70;54.60
63317;DHT22;49822;41.468;13.560;2023-08-20T11:36:24;36.80;53.50
63317;DHT22;49822;41.468;13.560;2023-08-20T11:38:54;36.90;53.30
63317;DHT22;49822;41.468;13.560;2023-08-20T11:41:24;37.00;52.60
63317;DHT22;49822;41.468;13.560;2023-08-20T11:43:52;37.30;52.50
63317;DHT22;49822;41.468;13.560;2023-08-20T11:46:20;37.50;52.80
63317;DHT22;49822;41.468;13.560;2023-08-20T11:49:06;37.80;51.50
63317;DHT22;49822;41.468;13.560;2023-08-20T11:51:44;38.00;52.20
63317;DHT22;49822;41.468;13.560;2023-08-20T11:54:28;38.20;51.00
63317;DHT22;49822;41.468;13.560;2023-08-20T11:57:25;38.10;51.80
63317;DHT22;49822;41.468;13.560;2023-08-20T12:00:05;38.20;52.20
63317;DHT22;49822;41.468;13.560;2023-08-20T12:02:43;38.20;50.90
63317;DHT22;49822;41.468;13.560;2023-08-20T12:05:09;38.00;51.30
63317;DHT22;49822;41.468;13.560;2023-08-20T12:07:35;38.30;51.00
63317;DHT22;49822;41.468;13.560;2023-08-20T12:10:19;37.80;50.60
63317;DHT22;49822;41.468;13.560;2023-08-20T12:12:51;37.80;50.40
63317;DHT22;49822;41.468;13.560;2023-08-20T12:15:19;37.80;50.90
63317;DHT22;49822;41.468;13.560;2023-08-20T12:18:00;38.20;51.50
63317;DHT22;49822;41.468;13.560;2023-08-20T12:20:30;38.40;52.00
63317;DHT22;49822;41.468;13.560;2023-08-20T12:22:59;38.60;51.10
63317;DHT22;49822;41.468;13.560;2023-08-20T12:25:27;38.70;49.50
63317;DHT22;49822;41.468;13.560;2023-08-20T12:27:54;38.30;49.80
63317;DHT22;49822;41.468;13.560;2023-08-20T12:30:20;38.00;50.20
63317;DHT22;49822;41.468;13.560;2023-08-20T12:32:46;37.70;50.00
63317;DHT22;49822;41.468;13.560;2023-08-20T12:35:13;37.30;50.40
63317;DHT22;49822;41.468;13.560;2023-08-20T12:37:39;37.00;50.70
63317;DHT22;49822;41.468;13.560;2023-08-20T12:40:06;36.60;50.90
63317;DHT22;49822;41.468;13.560;2023-08-20T12:42:46;36.60;50.00
63317;DHT22;49822;41.468;13.560;2023-08-20T12:45:19;36.20;50.30
63317;DHT22;49822;41.468;13.560;2023-08-20T12:47:59;36.40;50.40
63317;DHT22;49822;41.468;13.560;2023-08-20T12:50:25;36.60;51.70
63317;DHT22;49822;41.468;13.560;2023-08-20T12:52:51;36.90;50.90
63317;DHT22;49822;41.468;13.560;2023-08-20T12:55:18;37.30;50.60
63317;DHT22;49822;41.468;13.560;2023-08-20T12:57:54;37.10;49.10
63317;DHT22;49822;41.468;13.560;2023-08-20T13:00:24;36.80;50.10
63317;DHT22;49822;41.468;13.560;2023-08-20T13:02:51;36.70;50.60
63317;DHT22;49822;41.468;13.560;2023-08-20T13:05:18;36.50;50.10
63317;DHT22;49822;41.468;13.560;2023-08-20T13:07:45;36.40;51.50
63317;DHT22;49822;41.468;13.560;2023-08-20T13:10:11;36.10;51.30
63317;DHT22;49822;41.468;13.560;2023-08-20T13:12:41;35.60;50.50
63317;DHT22;49822;41.468;13.560;2023-08-20T13:15:08;35.20;53.00
63317;DHT22;49822;41.468;13.560;2023-08-20T13:17:37;35.00;53.20
63317;DHT22;49822;41.468;13.560;2023-08-20T13:20:05;34.80;53.50
63317;DHT22;49822;41.468;13.560;2023-08-20T13:22:31;34.80;51.40
63317;DHT22;49822;41.468;13.560;2023-08-20T13:24:57;34.50;52.40
63317;DHT22;49822;41.468;13.560;2023-08-20T13:27:23;34.40;53.80
63317;DHT22;49822;41.468;13.560;2023-08-20T13:29:50;34.40;53.80
63317;DHT22;49822;41.468;13.560;2023-08-20T13:32:17;34.40;53.00
63317;DHT22;49822;41.468;13.560;2023-08-20T13:34:43;34.40;52.50
63317;DHT22;49822;41.468;13.560;2023-08-20T13:37:09;34.20;52.20
63317;DHT22;49822;41.468;13.560;2023-08-20T13:39:35;34.00;51.90
63317;DHT22;49822;41.468;13.560;2023-08-20T13:42:02;34.00;52.00
63317;DHT22;49822;41.468;13.560;2023-08-20T13:44:31;34.10;51.90
63317;DHT22;49822;41.468;13.560;2023-08-20T13:46:57;34.10;51.60
63317;DHT22;49822;41.468;13.560;2023-08-20T13:49:23;34.20;52.50
63317;DHT22;49822;41.468;13.560;2023-08-20T13:51:49;34.40;52.10
63317;DHT22;49822;41.468;13.560;2023-08-20T13:54:18;34.30;52.20
63317;DHT22;49822;41.468;13.560;2023-08-20T13:56:45;34.30;51.90
63317;DHT22;49822;41.468;13.560;2023-08-20T13:59:11;34.30;52.20
63317;DHT22;49822;41.468;13.560;2023-08-20T14:01:39;34.50;52.30
63317;DHT22;49822;41.468;13.560;2023-08-20T14:04:05;34.80;51.70
63317;DHT22;49822;41.468;13.560;2023-08-20T14:06:32;34.90;51.40
63317;DHT22;49822;41.468;13.560;2023-08-20T14:08:58;35.10;50.80
63317;DHT22;49822;41.468;13.560;2023-08-20T14:11:24;35.10;50.60
63317;DHT22;49822;41.468;13.560;2023-08-20T14:13:50;35.30;50.50
63317;DHT22;49822;41.468;13.560;2023-08-20T14:16:16;35.30;50.90
63317;DHT22;49822;41.468;13.560;2023-08-20T14:18:43;35.40;51.10
63317;DHT22;49822;41.468;13.560;2023-08-20T14:21:09;35.20;50.10
63317;DHT22;49822;41.468;13.560;2023-08-20T14:23:36;35.10;51.00
63317;DHT22;49822;41.468;13.560;2023-08-20T14:26:05;35.30;51.40
63317;DHT22;49822;41.468;13.560;2023-08-20T14:28:32;35.20;49.80
63317;DHT22;49822;41.468;13.560;2023-08-20T14:31:02;35.20;50.30
63317;DHT22;49822;41.468;13.560;2023-08-20T14:33:32;35.20;50.30
63317;DHT22;49822;41.468;13.560;2023-08-20T14:36:00;35.40;50.40
63317;DHT22;49822;41.468;13.560;2023-08-20T14:38:28;35.60;50.60
63317;DHT22;49822;41.468;13.560;2023-08-20T14:40:58;35.60;51.50
63317;DHT22;49822;41.468;13.560;2023-08-20T14:43:24;35.40;50.90
63317;DHT22;49822;41.468;13.560;2023-08-20T14:45:51;35.10;50.30
63317;DHT22;49822;41.468;13.560;2023-08-20T14:48:18;35.10;51.80
63317;DHT22;49822;41.468;13.560;2023-08-20T14:50:44;35.50;52.20
63317;DHT22;49822;41.468;13.560;2023-08-20T14:53:11;35.70;51.70
63317;DHT22;49822;41.468;13.560;2023-08-20T14:55:37;35.80;50.60
63317;DHT22;49822;41.468;13.560;2023-08-20T14:58:03;36.10;51.40
63317;DHT22;49822;41.468;13.560;2023-08-20T15:00:32;36.30;50.00
63317;DHT22;49822;41.468;13.560;2023-08-20T15:02:58;36.50;49.70
63317;DHT22;49822;41.468;13.560;2023-08-20T15:05:24;36.80;50.10
63317;DHT22;49822;41.468;13.560;2023-08-20T15:07:51;36.90;49.20
63317;DHT22;49822;41.468;13.560;2023-08-20T15:10:17;36.90;49.00
63317;DHT22;49822;41.468;13.560;2023-08-20T15:12:44;37.00;48.90
63317;DHT22;49822;41.468;13.560;2023-08-20T15:15:11;36.90;48.90
63317;DHT22;49822;41.468;13.560;2023-08-20T15:17:37;36.80;48.90
63317;DHT22;49822;41.468;13.560;2023-08-20T15:20:05;36.90;49.30
63317;DHT22;49822;41.468;13.560;2023-08-20T15:22:39;36.90;49.00
63317;DHT22;49822;41.468;13.560;2023-08-20T15:25:06;36.80;48.20
63317;DHT22;49822;41.468;13.560;2023-08-20T15:27:36;36.90;49.00
63317;DHT22;49822;41.468;13.560;2023-08-20T15:30:04;36.80;48.20
63317;DHT22;49822;41.468;13.560;2023-08-20T15:32:32;36.90;48.50
63317;DHT22;49822;41.468;13.560;2023-08-20T15:34:58;37.00;49.70
63317;DHT22;49822;41.468;13.560;2023-08-20T15:37:24;37.00;49.40
63317;DHT22;49822;41.468;13.560;2023-08-20T15:39:51;37.00;48.50